Norman, OK

7:05 AM CST on February 27, 2015 (GMT -0600)
Wiley Post | Change Station
CLOSE
Current Station
Airport
Location: Oklahoma City Wiley Post,
Elevation: 1299 ft
Nearby Weather Stations

Elev 1299 ft 35.53 °N, 97.65 °W | Updated 12 minutes ago

Overcast
Overcast
18 °F
Feels Like 5 °F
N
13
Wind Variable Wind from NE

Today
High -- | Low -- °F
--% Chance of Precip.
Yesterday
High -- | Low -- °F
Precip. -- in
7:02 AM 6:23 PM
Waxing Gibbous, 68% visible
Pressure 30.55 in
Visibility 10.0 miles
Clouds Overcast 8500 ft
Windchill 5 °F
Dew Point 3 °F
Humidity 52%
Rainfall 0.00 in
Snow Depth Not available.
UV 0 out of 12
Pollen 3.70 out of 12
Ozone Good
PM2.5 Good
Flu Activity Widespread
METAR KPWA 271253Z 04011KT 10SM OVC085 M08/M16 A3050 RMK AO2 SLP345 T10781161

More Conditions Fewer Conditions

Pressure 30.55 in
Visibility 10.0 miles
Clouds Overcast 8500 ft
Windchill 5 °F
Dew Point 3 °F
Humidity 52%
Rainfall 0.00 in
Snow Depth Not available.
UV 0 out of 12
Pollen 3.70 out of 12
Ozone Good
PM2.5 Good
Flu Activity Widespread
METAR KPWA 271253Z 04011KT 10SM OVC085 M08/M16 A3050 RMK AO2 SLP345 T10781161

More Conditions Fewer Conditions

10-Day Weather Forecast

Almanac

Astronomy

Feb. 27, 2015 Rise Set
Actual Time 7:02 AM CST 6:23 PM CST
Civil Twilight 6:36 AM CST 6:48 PM CST
Nautical Twilight 6:07 AM CST 7:18 PM CST
Astronomical Twilight 5:37 AM CST 7:47 PM CST
Moon 1:21 PM CST 2:46 AM CST
Length of Visible Light 12h 12m
Length of Day
11h 21m
Tomorrow will be 2m 10s longer.
Waxing Gibbous, 68% of the Moon is Illuminated
Today
Waxing Gibbous
Mar 5
Full
Mar 13
Last Quarter
Mar 20
New
Mar 27
First Quarter

Today's Extremes

State Highs State Lows

Community

WunderPhotos

Upload Photos

1,800,666 photos uploaded!

Nearby

Air Quality

  Air Quality AQ Index Pollutant
Yesterday Good
OZONE
Yesterday Good
PM2.5
Current Good
OZONE
Current Good
PM2.5
Friday Good
PM2.5
Friday Good
OZONE
Saturday Good
PM2.5
Saturday Good
OZONE
Sunday Good
PM2.5
Sunday Good
OZONE
Monday Good
PM2.5
Monday Good
OZONE

Snow Depth

Station Depth Elevation
No new snow has been reported.

Earthquake Activity

City Distance Mag. Time & Date
Perry, Oklahoma 86 miles 2.8 5:09 AM CST
2015-02-26
Perry, Oklahoma 82 miles 2.9 1:32 AM CST
2015-02-26
Waukomis, Oklahoma 72 miles 3.1 11:58 AM CST
2015-02-25
Caldwell, Kansas 120 miles 3.0 11:30 AM CST
2015-02-25
Minimum magnitude displayed is 2.5.

Coastal Water Temperatures

Place Temperature
No Stations Reporting

Nearby Weather Stations